Time;durP1;ratioP1;P1;durP2;ratioP2;P2;SDS_P1;SDS_P2;PMS_P1;PMS_P2;Temp;Humidity;BMP_temperature;BMP_pressure;BME280_temperature;BME280_humidity;BME280_pressure;Samples;Min_cycle;Max_cycle;Signal;HPM_P1;HPM_P2
2022/04/10 00:02:06;;;;;;;34.80;17.10;;;;;;;3.85;65.51;98294.39;105935;1274;96283;-66
2022/04/10 00:04:37;;;;;;;33.90;18.80;;;;;;;3.83;65.40;98305.73;105928;1274;108405;-65
2022/04/10 00:07:05;;;;;;;37.70;18.20;;;;;;;3.81;65.60;98310.95;106086;1274;96993;-65
2022/04/10 00:09:34;;;;;;;34.90;17.90;;;;;;;3.81;65.59;98315.18;106068;1274;97960;-66
2022/04/10 00:12:06;;;;;;;36.40;18.70;;;;;;;3.78;65.51;98319.55;106175;1274;111154;-66
2022/04/10 00:14:34;;;;;;;34.60;18.30;;;;;;;3.74;65.60;98320.27;106137;1274;96348;-66
2022/04/10 00:17:04;;;;;;;32.40;17.00;;;;;;;3.72;65.34;98322.80;106084;1274;107855;-65
2022/04/10 00:19:32;;;;;;;34.50;16.40;;;;;;;3.69;65.38;98324.23;106098;1273;97893;-65
2022/04/10 00:22:05;;;;;;;34.20;17.10;;;;;;;3.65;65.26;98328.00;106076;1274;97867;-63
2022/04/10 00:24:33;;;;;;;36.60;17.20;;;;;;;3.62;65.57;98327.45;106034;1274;112053;-66
2022/04/10 00:27:01;;;;;;;32.60;15.90;;;;;;;3.61;65.35;98321.38;106088;1274;98592;-65
2022/04/10 00:29:30;;;;;;;34.80;16.40;;;;;;;3.61;65.54;98319.98;106068;1275;108399;-65
2022/04/10 00:31:59;;;;;;;33.40;16.30;;;;;;;3.61;65.69;98318.06;106137;1274;97982;-65
2022/04/10 00:34:27;;;;;;;30.90;15.20;;;;;;;3.60;65.64;98314.60;106088;1274;97827;-66
2022/04/10 00:36:55;;;;;;;34.80;16.60;;;;;;;3.57;65.54;98313.70;106074;1276;114158;-65
2022/04/10 00:39:24;;;;;;;29.70;15.60;;;;;;;3.55;65.49;98312.23;105988;1275;97894;-63
2022/04/10 00:41:53;;;;;;;30.70;14.70;;;;;;;3.51;65.28;98315.92;106050;1275;108054;-65
2022/04/10 00:44:23;;;;;;;32.50;15.30;;;;;;;3.48;65.33;98313.46;105946;1275;96455;-65
2022/04/10 00:46:53;;;;;;;32.80;14.40;;;;;;;3.47;65.32;98316.00;106023;1274;97913;-66
2022/04/10 00:49:20;;;;;;;29.80;12.40;;;;;;;3.45;65.07;98313.49;105965;1276;112031;-67
2022/04/10 00:51:53;;;;;;;30.00;14.10;;;;;;;3.45;65.26;98318.59;105966;1275;97890;-66
2022/04/10 00:54:30;;;;;;;31.60;14.90;;;;;;;3.45;65.42;98317.02;105915;1275;107642;-64
2022/04/10 00:57:00;;;;;;;30.50;15.00;;;;;;;3.45;65.54;98315.42;106076;1274;97768;-65
2022/04/10 00:59:31;;;;;;;35.10;16.50;;;;;;;3.46;65.34;98319.06;106083;1275;95275;-66
2022/04/10 01:01:59;;;;;;;35.80;17.10;;;;;;;3.46;65.31;98322.05;105959;1275;112523;-66
2022/04/10 01:04:48;;;;;;;34.90;17.60;;;;;;;3.47;65.50;98329.36;106001;1274;99356;-65
2022/04/10 01:07:20;;;;;;;38.60;17.20;;;;;;;3.48;65.63;98333.33;105965;1275;107791;-66
2022/04/10 01:09:48;;;;;;;39.00;18.60;;;;;;;3.47;65.56;98334.78;105975;1274;97973;-66
2022/04/10 01:12:17;;;;;;;39.90;19.30;;;;;;;3.47;65.63;98337.08;106033;1274;97947;-66
2022/04/10 01:14:50;;;;;;;41.60;21.10;;;;;;;3.47;65.45;98340.52;106121;1274;111954;-65
2022/04/10 01:17:20;;;;;;;37.10;19.90;;;;;;;3.48;65.64;98336.11;106095;1274;97988;-65
2022/04/10 01:19:51;;;;;;;41.80;21.50;;;;;;;3.48;66.07;98341.17;105953;1274;108118;-68
2022/04/10 01:22:37;;;;;;;43.00;23.60;;;;;;;3.48;65.73;98345.21;106104;1274;97989;-65
2022/04/10 01:25:09;;;;;;;40.10;20.60;;;;;;;3.47;65.65;98349.83;106066;1275;95297;-66
2022/04/10 01:27:40;;;;;;;39.30;21.80;;;;;;;3.48;65.57;98355.59;106017;1275;111477;-65
2022/04/10 01:30:13;;;;;;;46.50;24.90;;;;;;;3.47;66.05;98350.55;106013;1275;97845;-64
2022/04/10 01:32:43;;;;;;;41.70;23.80;;;;;;;3.46;65.87;98351.68;106034;1274;108515;-65
2022/04/10 01:35:13;;;;;;;42.00;23.40;;;;;;;3.44;66.03;98352.63;105979;1275;97913;-64
2022/04/10 01:37:45;;;;;;;43.20;23.80;;;;;;;3.41;65.75;98355.20;105956;1275;97886;-66
2022/04/10 01:40:13;;;;;;;41.80;23.00;;;;;;;3.39;65.72;98359.89;106024;1274;111477;-66
2022/04/10 01:42:41;;;;;;;46.60;25.40;;;;;;;3.38;65.77;98361.88;106163;1273;97901;-67
2022/04/10 01:45:11;;;;;;;45.10;26.10;;;;;;;3.37;65.85;98367.86;106134;1274;110671;-66
2022/04/10 01:47:39;;;;;;;43.10;24.00;;;;;;;3.36;66.14;98370.39;106093;1274;98436;-65
2022/04/10 01:50:11;;;;;;;47.10;26.30;;;;;;;3.35;65.78;98372.75;106103;1274;97766;-65
2022/04/10 01:52:39;;;;;;;43.30;22.80;;;;;;;3.34;65.64;98371.60;106120;1274;111234;-67
2022/04/10 01:55:09;;;;;;;45.70;25.00;;;;;;;3.32;66.25;98370.10;106154;1274;97979;-66
2022/04/10 01:57:39;;;;;;;42.10;23.40;;;;;;;3.31;65.88;98369.60;106153;1274;108765;-65
2022/04/10 02:00:10;;;;;;;40.60;23.30;;;;;;;3.31;65.85;98374.16;106135;1274;95262;-64
2022/04/10 02:02:40;;;;;;;42.00;22.30;;;;;;;3.30;66.03;98373.00;106137;1274;98317;-65
2022/04/10 02:05:10;;;;;;;45.50;24.00;;;;;;;3.28;65.84;98374.33;106021;1275;112029;-65
2022/04/10 02:07:39;;;;;;;43.40;22.90;;;;;;;3.27;65.79;98376.86;105999;1274;97873;-65
2022/04/10 02:10:09;;;;;;;42.70;24.40;;;;;;;3.24;65.78;98380.52;105977;1275;108226;-65
2022/04/10 02:12:36;;;;;;;42.70;24.90;;;;;;;3.21;65.65;98381.69;106071;1274;96310;-65
2022/04/10 02:15:07;;;;;;;43.50;25.00;;;;;;;3.19;65.83;98385.48;106067;1275;97909;-65
2022/04/10 02:17:35;;;;;;;44.30;25.40;;;;;;;3.15;65.77;98385.02;106081;1274;111348;-65
2022/04/10 02:20:05;;;;;;;45.00;25.10;;;;;;;3.11;65.69;98383.83;106079;1274;97904;-66
2022/04/10 02:22:33;;;;;;;42.50;23.10;;;;;;;3.08;66.12;98388.52;106074;1274;108380;-69
2022/04/10 02:25:02;;;;;;;44.50;24.50;;;;;;;3.05;65.88;98392.39;106199;1274;98055;-65
2022/04/10 02:27:32;;;;;;;43.80;25.70;;;;;;;3.01;65.61;98391.02;106149;1274;96981;-66
2022/04/10 02:29:59;;;;;;;45.10;23.40;;;;;;;2.97;65.92;98391.55;106095;1274;112057;-66
2022/04/10 02:32:29;;;;;;;45.00;26.80;;;;;;;2.95;65.63;98394.98;107150;1274;97893;-65
2022/04/10 02:34:58;;;;;;;51.10;24.80;;;;;;;2.93;65.69;98396.84;106101;1273;108232;-65
2022/04/10 02:37:26;;;;;;;46.80;25.60;;;;;;;2.90;66.07;98398.58;106094;1274;97892;-66
2022/04/10 02:39:54;;;;;;;43.80;25.30;;;;;;;2.85;66.09;98398.33;106101;1274;97871;-65
2022/04/10 02:42:22;;;;;;;52.70;27.00;;;;;;;2.80;65.88;98396.13;106052;1274;112360;-65
2022/04/10 02:44:49;;;;;;;46.70;25.70;;;;;;;2.77;66.02;98399.61;106055;1274;97909;-64
2022/04/10 02:47:17;;;;;;;47.70;25.70;;;;;;;2.74;65.88;98400.45;105987;1275;108349;-65
2022/04/10 02:49:47;;;;;;;44.30;25.10;;;;;;;2.72;66.18;98395.65;106101;1274;97978;-65
2022/04/10 02:52:17;;;;;;;46.60;25.50;;;;;;;2.69;66.20;98398.77;106159;1274;97859;-65
2022/04/10 02:54:46;;;;;;;42.10;22.20;;;;;;;2.66;66.55;98399.98;106037;1274;111636;-64
2022/04/10 02:57:16;;;;;;;44.80;24.00;;;;;;;2.63;66.43;98401.36;106177;1274;96462;-65
2022/04/10 02:59:46;;;;;;;41.70;23.10;;;;;;;2.61;66.34;98396.89;106082;1273;108432;-67
2022/04/10 03:02:14;;;;;;;46.10;24.40;;;;;;;2.61;66.34;98399.38;105994;1275;97873;-65
2022/04/10 03:04:44;;;;;;;43.50;23.80;;;;;;;2.60;66.42;98399.95;106053;1275;97874;-65
2022/04/10 03:07:12;;;;;;;45.50;24.80;;;;;;;2.60;66.34;98402.05;106196;1274;111973;-64
2022/04/10 03:09:41;;;;;;;42.60;22.40;;;;;;;2.59;65.99;98403.67;106196;1274;96135;-64
2022/04/10 03:12:10;;;;;;;40.40;21.10;;;;;;;2.58;66.27;98410.56;106060;1276;108424;-65
2022/04/10 03:14:40;;;;;;;41.20;23.00;;;;;;;2.57;66.37;98415.86;106103;1275;95300;-65
2022/04/10 03:17:08;;;;;;;46.60;24.10;;;;;;;2.56;66.17;98426.76;106166;1274;97979;-66
2022/04/10 03:19:36;;;;;;;41.30;22.20;;;;;;;2.56;66.60;98433.06;106111;1274;112106;-65
2022/04/10 03:22:06;;;;;;;42.30;23.90;;;;;;;2.53;66.95;98437.40;106068;1274;97973;-64
2022/04/10 03:24:34;;;;;;;46.70;24.30;;;;;;;2.51;66.87;98441.67;106069;1272;108319;-65
2022/04/10 03:27:05;;;;;;;41.90;22.60;;;;;;;2.48;67.66;98444.61;106070;1274;97850;-65
2022/04/10 03:29:35;;;;;;;47.10;24.00;;;;;;;2.46;66.59;98448.41;105995;1277;95356;-66
2022/04/10 03:32:06;;;;;;;43.30;24.10;;;;;;;2.45;66.54;98455.09;105988;1275;112941;-65
2022/04/10 03:34:33;;;;;;;41.40;22.30;;;;;;;2.45;66.46;98458.10;106103;1274;97705;-64
2022/04/10 03:37:01;;;;;;;47.30;23.50;;;;;;;2.44;66.63;98460.25;106097;1273;107915;-68
2022/04/10 03:39:31;;;;;;;44.40;23.90;;;;;;;2.44;66.73;98463.75;106074;1274;96336;-67
2022/04/10 03:42:01;;;;;;;40.10;21.10;;;;;;;2.43;66.51;98468.36;105936;1274;360614;-65
2022/04/10 03:44:31;;;;;;;44.00;23.00;;;;;;;2.39;67.61;98474.30;106168;1274;111999;-66
2022/04/10 03:47:01;;;;;;;43.40;23.40;;;;;;;2.36;67.05;98475.65;106193;1274;95249;-65
2022/04/10 03:49:31;;;;;;;45.80;25.60;;;;;;;2.35;66.69;98482.20;106169;1274;108969;-66
2022/04/10 03:51:59;;;;;;;43.10;23.20;;;;;;;2.34;66.69;98484.16;106041;1274;98747;-67
2022/04/10 03:54:27;;;;;;;41.80;22.20;;;;;;;2.34;66.40;98486.75;106057;1277;95309;-66
2022/04/10 03:56:56;;;;;;;43.90;22.80;;;;;;;2.34;66.56;98492.36;106105;1274;110204;-65
2022/04/10 03:59:24;;;;;;;40.90;22.90;;;;;;;2.36;66.36;98497.02;106047;1275;98657;-66
2022/04/10 04:01:53;;;;;;;41.60;22.40;;;;;;;2.36;66.59;98498.92;106238;1274;107098;-67
2022/04/10 04:04:23;;;;;;;44.10;23.20;;;;;;;2.36;66.29;98498.41;106054;1274;95359;-65
2022/04/10 04:06:51;;;;;;;42.80;23.30;;;;;;;2.35;66.67;98502.29;106065;1274;97915;-66
2022/04/10 04:09:19;;;;;;;41.30;22.00;;;;;;;2.35;66.98;98506.17;106059;1274;111016;-65
2022/04/10 04:11:47;;;;;;;43.20;24.80;;;;;;;2.33;66.72;98506.06;106051;1274;95253;-65
2022/04/10 04:14:15;;;;;;;44.10;23.50;;;;;;;2.34;66.76;98507.46;106137;1274;109230;-65
2022/04/10 04:16:43;;;;;;;45.60;24.60;;;;;;;2.30;66.50;98502.73;106081;1274;97855;-64
2022/04/10 04:19:11;;;;;;;44.20;24.10;;;;;;;2.31;66.88;98513.52;106076;1274;97874;-64
2022/04/10 04:21:39;;;;;;;42.30;22.80;;;;;;;2.29;66.85;98515.39;105970;1275;111947;-65
2022/04/10 04:24:09;;;;;;;42.40;23.40;;;;;;;2.28;66.97;98517.35;106037;1274;96379;-66
2022/04/10 04:26:37;;;;;;;42.70;23.40;;;;;;;2.28;66.75;98517.01;106155;1274;107377;-67
2022/04/10 04:29:05;;;;;;;41.40;21.80;;;;;;;2.27;66.56;98519.83;106182;1274;97885;-67
2022/04/10 04:31:33;;;;;;;40.40;21.70;;;;;;;2.27;66.78;98520.36;106211;1274;96815;-67
2022/04/10 04:34:03;;;;;;;43.80;22.50;;;;;;;2.29;66.88;98522.20;106080;1274;111991;-68
2022/04/10 04:36:33;;;;;;;42.70;24.30;;;;;;;2.30;66.84;98529.11;106080;1274;97978;-67
2022/04/10 04:39:01;;;;;;;45.30;23.60;;;;;;;2.32;66.89;98531.31;106070;1274;108521;-67
2022/04/10 04:41:31;;;;;;;42.20;21.30;;;;;;;2.33;67.08;98537.90;106099;1274;96321;-69
2022/04/10 04:44:00;;;;;;;45.20;24.00;;;;;;;2.33;66.85;98539.14;106087;1274;98391;-68
2022/04/10 04:46:28;;;;;;;40.80;22.20;;;;;;;2.35;66.88;98542.18;106085;1274;112080;-67
2022/04/10 04:48:56;;;;;;;43.60;22.80;;;;;;;2.35;67.38;98546.40;106098;1274;96266;-65
2022/04/10 04:51:25;;;;;;;48.00;24.90;;;;;;;2.35;67.18;98549.91;106065;1274;108380;-68
2022/04/10 04:53:55;;;;;;;43.00;23.70;;;;;;;2.35;67.06;98553.56;106099;1274;97948;-68
2022/04/10 04:56:23;;;;;;;41.90;21.30;;;;;;;2.35;67.26;98557.09;106188;1274;95304;-67
2022/04/10 04:58:53;;;;;;;44.90;24.00;;;;;;;2.37;66.84;98565.75;106184;1274;112013;-67
2022/04/10 05:01:23;;;;;;;45.00;22.10;;;;;;;2.38;67.26;98569.38;106147;1274;97742;-67
2022/04/10 05:03:53;;;;;;;42.00;22.20;;;;;;;2.38;67.18;98575.48;106099;1274;108315;-68
2022/04/10 05:06:21;;;;;;;43.00;23.60;;;;;;;2.42;67.18;98574.29;106161;1274;97876;-67
2022/04/10 05:08:49;;;;;;;43.60;22.90;;;;;;;2.42;67.38;98576.04;106157;1274;97861;-68
2022/04/10 05:11:20;;;;;;;38.20;21.20;;;;;;;2.41;66.98;98580.09;106156;1274;111579;-71
2022/04/10 05:13:48;;;;;;;47.80;24.80;;;;;;;2.43;66.83;98581.05;106190;1274;95520;-67
2022/04/10 05:16:16;;;;;;;40.60;23.00;;;;;;;2.45;67.08;98583.23;106174;1274;108537;-67
2022/04/10 05:18:47;;;;;;;43.20;23.20;;;;;;;2.45;67.69;98585.82;106139;1274;96300;-68
2022/04/10 05:21:17;;;;;;;44.60;24.70;;;;;;;2.46;67.12;98586.52;106208;1274;97856;-67
2022/04/10 05:23:45;;;;;;;42.40;22.50;;;;;;;2.47;67.66;98589.23;106167;1274;112220;-68
2022/04/10 05:26:13;;;;;;;39.20;22.00;;;;;;;2.49;67.09;98585.45;106140;1274;96264;-67
2022/04/10 05:28:41;;;;;;;40.90;23.20;;;;;;;2.54;67.30;98591.53;106109;1274;108394;-67
2022/04/10 05:31:09;;;;;;;42.20;22.30;;;;;;;2.58;67.37;98588.94;106045;1277;97961;-69
2022/04/10 05:33:40;;;;;;;38.60;21.50;;;;;;;2.60;67.16;98591.78;106084;1276;97897;-68
2022/04/10 05:36:07;;;;;;;39.40;21.50;;;;;;;2.64;67.42;98590.57;106071;1276;112064;-67
2022/04/10 05:38:37;;;;;;;44.30;22.70;;;;;;;2.67;67.21;98593.91;106126;1275;98983;-68
2022/04/10 05:41:15;;;;;;;42.50;22.10;;;;;;;2.73;67.43;98595.01;106078;1274;108342;-69
2022/04/10 05:43:43;;;;;;;39.20;21.50;;;;;;;2.76;67.46;98595.56;106107;1274;97977;-68
2022/04/10 05:46:13;;;;;;;36.80;21.50;;;;;;;2.80;67.58;98599.58;106067;1275;97954;-69
2022/04/10 05:48:43;;;;;;;38.30;21.30;;;;;;;2.89;67.33;98604.79;106091;1274;112003;-69
2022/04/10 05:51:12;;;;;;;38.90;21.20;;;;;;;2.98;67.42;98603.29;106069;1275;97963;-67
2022/04/10 05:53:42;;;;;;;40.90;22.20;;;;;;;3.07;67.14;98600.05;106060;1277;107832;-67
2022/04/10 05:56:10;;;;;;;39.20;20.90;;;;;;;3.11;67.44;98601.03;106063;1274;97953;-70
2022/04/10 05:58:38;;;;;;;39.60;21.10;;;;;;;3.20;67.29;98604.16;106017;1274;97829;-68
2022/04/10 06:01:07;;;;;;;41.90;21.40;;;;;;;3.25;67.23;98602.83;105965;1274;112093;-68
2022/04/10 06:03:35;;;;;;;42.30;22.10;;;;;;;3.24;67.55;98603.79;105993;1274;96261;-66
2022/04/10 06:06:03;;;;;;;39.70;20.50;;;;;;;3.22;67.57;98601.59;105946;1276;108296;-68
2022/04/10 06:08:31;;;;;;;38.90;21.70;;;;;;;3.24;67.56;98604.83;106198;1274;97998;-68
2022/04/10 06:10:59;;;;;;;36.90;20.70;;;;;;;3.27;67.59;98604.30;106142;1274;97857;-68
2022/04/10 06:13:29;;;;;;;37.70;20.90;;;;;;;3.28;67.44;98603.00;106062;1274;110489;-70
2022/04/10 06:15:59;;;;;;;41.50;22.20;;;;;;;3.33;67.51;98605.08;106043;1274;98037;-69
2022/04/10 06:18:27;;;;;;;42.00;21.80;;;;;;;3.36;67.70;98605.81;106079;1274;107745;-71
2022/04/10 06:20:55;;;;;;;37.40;19.60;;;;;;;3.36;67.28;98606.30;105959;1274;97904;-69
2022/04/10 06:23:27;;;;;;;39.80;20.50;;;;;;;3.41;67.86;98606.56;106067;1275;97943;-68
2022/04/10 06:25:55;;;;;;;36.10;18.90;;;;;;;3.47;67.63;98605.61;106035;1274;112694;-69
2022/04/10 06:28:23;;;;;;;38.30;19.60;;;;;;;3.48;67.51;98607.61;105990;1275;95953;-68
2022/04/10 06:30:53;;;;;;;34.50;17.10;;;;;;;3.51;67.63;98604.35;106046;1274;108982;-71
2022/04/10 06:33:24;;;;;;;33.30;17.10;;;;;;;3.59;67.86;98611.30;106051;1274;98005;-75
2022/04/10 06:35:54;;;;;;;36.90;17.90;;;;;;;3.65;67.64;98611.52;106132;1274;96229;-70
2022/04/10 06:38:23;;;;;;;33.60;16.50;;;;;;;3.74;67.84;98610.34;106055;1274;111419;-69
2022/04/10 06:40:51;;;;;;;33.50;17.30;;;;;;;3.81;68.06;98615.78;106170;1274;97508;-69
2022/04/10 06:43:20;;;;;;;32.60;17.10;;;;;;;3.86;67.76;98615.15;106120;1274;107714;-71
2022/04/10 06:45:49;;;;;;;33.20;16.30;;;;;;;3.91;67.67;98623.66;106089;1274;97905;-69
2022/04/10 06:48:17;;;;;;;31.00;15.40;;;;;;;3.97;67.72;98627.76;106029;1274;97831;-67
2022/04/10 06:50:46;;;;;;;30.50;14.70;;;;;;;4.02;67.80;98627.30;105964;1274;109808;-69
2022/04/10 06:53:15;;;;;;;35.20;14.90;;;;;;;4.06;67.90;98626.41;106020;1274;97986;-67
2022/04/10 06:55:43;;;;;;;31.90;14.70;;;;;;;4.12;67.84;98629.79;105909;1274;108411;-68
2022/04/10 06:58:11;;;;;;;26.70;13.30;;;;;;;4.21;67.75;98635.97;105893;1274;97896;-68
2022/04/10 07:00:40;;;;;;;27.70;13.10;;;;;;;4.35;67.69;98637.66;105925;1274;97954;-66
2022/04/10 07:03:10;;;;;;;28.40;12.00;;;;;;;4.48;67.88;98640.31;105990;1274;111745;-66
2022/04/10 07:05:41;;;;;;;29.00;11.90;;;;;;;4.61;67.90;98640.31;106025;1274;95836;-67
2022/04/10 07:08:11;;;;;;;24.30;10.60;;;;;;;4.74;67.73;98641.88;106023;1274;108453;-68
2022/04/10 07:10:39;;;;;;;28.40;12.50;;;;;;;4.84;67.55;98643.43;105993;1274;96991;-68
2022/04/10 07:13:07;;;;;;;27.70;10.70;;;;;;;4.94;67.44;98645.36;106006;1274;97943;-68
2022/04/10 07:15:37;;;;;;;26.20;10.60;;;;;;;4.99;67.51;98645.94;106025;1274;112056;-67
2022/04/10 07:18:07;;;;;;;22.90;10.00;;;;;;;5.07;67.38;98651.66;105955;1274;97976;-68
2022/04/10 07:20:35;;;;;;;23.60;10.00;;;;;;;5.13;67.11;98652.88;105938;1274;108266;-69
2022/04/10 07:25:50;;;;;;;26.10;10.50;;;;;;;5.28;67.32;98659.41;106022;1274;99111;-70
2022/04/10 07:28:18;;;;;;;26.50;9.80;;;;;;;5.41;67.21;98658.70;105931;1274;111460;-69
2022/04/10 07:30:48;;;;;;;24.70;10.50;;;;;;;5.75;67.41;98656.52;106011;1274;97887;-68
2022/04/10 07:33:16;;;;;;;23.10;10.00;;;;;;;6.54;67.25;98657.95;105980;1274;108416;-68
2022/04/10 07:35:45;;;;;;;23.10;10.10;;;;;;;7.41;65.70;98653.96;106018;1274;97925;-68
2022/04/10 07:38:17;;;;;;;24.00;10.10;;;;;;;8.20;66.34;98650.98;106024;1274;97890;-69
2022/04/10 07:40:47;;;;;;;23.50;9.40;;;;;;;8.97;66.13;98649.79;106043;1274;112038;-70
2022/04/10 07:43:15;;;;;;;23.80;10.20;;;;;;;9.79;66.29;98646.04;106000;1274;97716;-69
2022/04/10 07:48:33;;;;;;;20.40;8.70;;;;;;;12.07;66.15;98639.75;106002;1274;97889;-67
2022/04/10 07:51:01;;;;;;;21.90;7.90;;;;;;;13.08;66.08;98639.14;106108;1274;97813;-69
2022/04/10 07:53:33;;;;;;;16.70;6.90;;;;;;;14.16;66.12;98633.95;106167;1274;111918;-69
2022/04/10 07:56:01;;;;;;;18.60;6.90;;;;;;;15.06;65.90;98632.35;105914;1277;98056;-69
2022/04/10 07:58:31;;;;;;;17.40;7.40;;;;;;;16.09;66.31;98631.56;105995;1274;107552;-70
2022/04/10 08:00:58;;;;;;;20.50;7.70;;;;;;;16.79;64.62;98634.94;106175;1274;97893;-68
2022/04/10 08:03:28;;;;;;;18.50;7.70;;;;;;;16.91;64.85;98633.62;106017;1274;97873;-67
2022/04/10 08:05:56;;;;;;;18.20;6.70;;;;;;;16.96;65.16;98635.98;106015;1274;110967;-69
2022/04/10 08:08:24;;;;;;;20.70;7.20;;;;;;;15.96;63.25;98635.52;105981;1274;95246;-70
2022/04/10 08:10:53;;;;;;;21.80;7.80;;;;;;;14.81;59.43;98644.95;105964;1274;108709;-68
2022/04/10 08:13:23;;;;;;;15.80;6.10;;;;;;;14.98;63.79;98644.70;106103;1274;97889;-68
2022/04/10 08:15:51;;;;;;;19.50;7.20;;;;;;;15.72;63.64;98641.60;106086;1274;96604;-68
2022/04/10 08:18:19;;;;;;;14.60;5.80;;;;;;;16.14;63.63;98641.06;106055;1274;112141;-68
2022/04/10 08:20:49;;;;;;;14.50;5.20;;;;;;;16.76;62.82;98640.11;106080;1274;97879;-69
2022/04/10 08:23:20;;;;;;;16.50;5.80;;;;;;;17.32;58.72;98640.81;106090;1274;106157;-69
2022/04/10 08:25:48;;;;;;;16.60;5.60;;;;;;;17.50;59.71;98640.16;106138;1274;97906;-69
2022/04/10 08:28:17;;;;;;;16.10;5.80;;;;;;;17.53;62.81;98647.54;106092;1274;97962;-68
2022/04/10 08:30:46;;;;;;;16.10;5.70;;;;;;;17.23;62.57;98647.08;106199;1274;112073;-68
2022/04/10 08:33:15;;;;;;;18.80;6.70;;;;;;;16.56;54.42;98648.58;106111;1274;97921;-70
2022/04/10 08:35:43;;;;;;;17.80;6.30;;;;;;;16.56;58.81;98650.36;105975;1274;108670;-69
2022/04/10 08:38:11;;;;;;;18.10;5.80;;;;;;;16.94;59.87;98651.13;106097;1274;97885;-70
2022/04/10 08:40:40;;;;;;;13.60;5.40;;;;;;;16.63;58.37;98649.88;106023;1274;98183;-70
2022/04/10 08:43:10;;;;;;;13.80;5.20;;;;;;;16.63;60.75;98650.52;105962;1274;110485;-69
2022/04/10 08:45:39;;;;;;;14.90;5.50;;;;;;;17.09;61.05;98654.00;106005;1274;98222;-70
2022/04/10 08:48:09;;;;;;;15.20;5.20;;;;;;;17.07;59.47;98654.90;106038;1274;107453;-70
2022/04/10 08:50:38;;;;;;;16.50;5.40;;;;;;;16.05;59.97;98658.70;106049;1274;97959;-68
2022/04/10 08:53:08;;;;;;;15.10;5.30;;;;;;;15.02;55.74;98660.54;105995;1274;97953;-70
2022/04/10 08:55:42;;;;;;;13.10;5.00;;;;;;;13.71;51.38;98665.34;105893;1274;112621;-70
2022/04/10 08:58:11;;;;;;;13.80;4.50;;;;;;;12.75;56.28;98671.79;105993;1274;97977;-68
2022/04/10 09:00:44;;;;;;;17.80;5.10;;;;;;;12.10;58.52;98674.45;105928;1274;108302;-69
2022/04/10 09:03:16;;;;;;;19.10;4.60;;;;;;;12.04;59.25;98671.45;105958;1274;98911;-69
2022/04/10 09:06:04;;;;;;;15.80;4.60;;;;;;;12.66;58.21;98668.48;105949;1274;97990;-70
2022/04/10 09:08:35;;;;;;;13.20;4.30;;;;;;;12.34;59.24;98673.15;105890;1274;111441;-71
2022/04/10 09:11:08;;;;;;;11.60;4.00;;;;;;;11.91;57.25;98675.42;105947;1274;97989;-71
2022/04/10 09:13:38;;;;;;;16.00;4.50;;;;;;;11.23;57.15;98679.70;105873;1274;107778;-71
2022/04/10 09:16:10;;;;;;;13.40;4.10;;;;;;;10.67;56.92;98677.29;105985;1273;96024;-70
2022/04/10 09:18:54;;;;;;;15.00;4.30;;;;;;;10.34;57.29;98679.43;106002;1272;97948;-71
2022/04/10 09:21:33;;;;;;;15.90;4.90;;;;;;;10.82;56.64;98674.81;105930;1274;111676;-70
2022/04/10 09:24:07;;;;;;;16.60;5.20;;;;;;;11.24;56.32;98672.39;105907;1274;96349;-72
2022/04/10 09:26:50;;;;;;;16.60;4.50;;;;;;;11.73;57.82;98671.00;105918;1274;107779;-70
2022/04/10 09:29:19;;;;;;;13.30;4.40;;;;;;;12.65;57.93;98665.52;106019;1274;97942;-70
2022/04/10 09:31:49;;;;;;;15.80;5.30;;;;;;;13.03;58.26;98666.52;105993;1274;97903;-68
2022/04/10 09:34:21;;;;;;;11.40;3.70;;;;;;;12.84;57.66;98669.58;105894;1274;110001;-70
2022/04/10 09:37:14;;;;;;;15.30;4.20;;;;;;;12.28;56.64;98669.27;105945;1273;97979;-69
2022/04/10 09:39:44;;;;;;;13.10;3.70;;;;;;;11.79;55.70;98669.28;105854;1274;108137;-71
2022/04/10 09:42:14;;;;;;;14.80;4.70;;;;;;;11.44;56.94;98673.71;105762;1274;96643;-67
2022/04/10 09:45:02;;;;;;;10.20;3.30;;;;;;;11.58;56.77;98670.64;105891;1274;95356;-69
2022/04/10 09:47:30;;;;;;;13.60;4.10;;;;;;;11.41;56.93;98672.63;105980;1274;111908;-70
2022/04/10 09:50:05;;;;;;;11.70;4.00;;;;;;;11.24;56.86;98670.91;105988;1277;96845;-69
2022/04/10 09:52:37;;;;;;;11.30;3.40;;;;;;;10.98;52.55;98669.33;105801;1274;108443;-70
2022/04/10 09:55:08;;;;;;;10.50;3.60;;;;;;;10.60;54.61;98667.00;105913;1274;98457;-70
2022/04/10 09:57:51;;;;;;;12.00;3.50;;;;;;;10.29;54.93;98667.10;105980;1274;97951;-71
2022/04/10 10:00:19;;;;;;;11.80;4.40;;;;;;;9.93;55.21;98670.85;105947;1274;111800;-69
2022/04/10 10:02:50;;;;;;;14.70;4.10;;;;;;;9.68;55.39;98674.17;105906;1274;96452;-70
2022/04/10 10:05:19;;;;;;;13.50;4.30;;;;;;;9.46;55.49;98679.35;105851;1274;106729;-70
2022/04/10 10:07:49;;;;;;;15.60;4.80;;;;;;;9.38;55.11;98675.98;105887;1274;98082;-69
2022/04/10 10:10:20;;;;;;;15.60;4.50;;;;;;;9.44;55.65;98676.49;106022;1274;97864;-74
2022/04/10 10:12:52;;;;;;;13.30;3.40;;;;;;;9.43;51.17;98678.49;105955;1274;111425;-72
2022/04/10 10:15:21;;;;;;;9.90;3.70;;;;;;;9.26;53.11;98671.78;106038;1274;95952;-69
2022/04/10 10:17:49;;;;;;;13.90;3.80;;;;;;;9.11;54.06;98678.17;105935;1274;107748;-68
2022/04/10 10:20:21;;;;;;;11.00;3.30;;;;;;;9.04;54.03;98681.86;105900;1274;97889;-71
2022/04/10 10:22:50;;;;;;;13.90;4.40;;;;;;;9.02;53.81;98675.48;105839;1274;97970;-69
2022/04/10 10:25:35;;;;;;;15.00;4.40;;;;;;;8.95;54.12;98673.70;105978;1274;110207;-69
2022/04/10 10:28:32;;;;;;;14.70;3.60;;;;;;;8.83;54.09;98681.27;105930;1274;95916;-71
2022/04/10 10:31:24;;;;;;;13.90;4.40;;;;;;;8.73;53.82;98680.02;105920;1274;107754;-69
2022/04/10 10:33:57;;;;;;;12.90;3.70;;;;;;;8.65;53.67;98675.77;105894;1274;97903;-71
2022/04/10 10:36:27;;;;;;;14.80;3.80;;;;;;;8.69;53.02;98680.64;105945;1274;95877;-72
2022/04/10 10:38:57;;;;;;;8.90;3.30;;;;;;;8.73;51.93;98680.70;105906;1274;110473;-70
2022/04/10 10:41:25;;;;;;;9.30;3.30;;;;;;;8.73;53.74;98677.71;105995;1274;97937;-70
2022/04/10 10:43:56;;;;;;;9.20;2.90;;;;;;;8.77;53.63;98681.29;105931;1274;107593;-72
2022/04/10 10:46:34;;;;;;;11.30;2.80;;;;;;;8.75;53.01;98684.81;105892;1274;97980;-71
2022/04/10 10:49:08;;;;;;;10.80;3.30;;;;;;;8.67;52.80;98685.93;105900;1274;95375;-68
2022/04/10 10:51:36;;;;;;;;;;;;;;;8.55;53.44;98685.32;105840;1274;111456;-70
2022/04/10 10:54:11;;;;;;;9.50;3.00;;;;;;;8.45;53.41;98687.27;105990;1274;95713;-68
2022/04/10 10:56:41;;;;;;;12.60;3.70;;;;;;;8.40;53.47;98687.77;105985;1274;107734;-68
2022/04/10 10:59:32;;;;;;;15.50;4.00;;;;;;;8.40;52.71;98684.26;105960;1274;97899;-70
2022/04/10 11:02:14;;;;;;;12.60;3.60;;;;;;;8.49;52.94;98681.34;105941;1274;95194;-70
2022/04/10 11:05:08;;;;;;;13.80;4.00;;;;;;;8.48;51.80;98682.95;106041;1274;112772;-70
2022/04/10 11:07:41;;;;;;;11.00;3.60;;;;;;;8.44;53.06;98691.36;106131;1274;97969;-71
2022/04/10 11:10:11;;;;;;;12.50;3.40;;;;;;;8.37;52.84;98688.67;106047;1274;109594;-70
2022/04/10 11:12:48;;;;;;;13.70;3.70;;;;;;;8.31;53.49;98694.19;105946;1274;97574;-70
2022/04/10 11:15:22;;;;;;;10.90;3.40;;;;;;;8.19;50.52;98692.01;106133;1274;96990;-71
2022/04/10 11:17:54;;;;;;;17.70;5.90;;;;;;;8.06;52.24;98707.73;105848;1274;111317;-68
2022/04/10 11:20:27;;;;;;;17.40;5.00;;;;;;;7.98;52.86;98711.30;106078;1274;97864;-70
2022/04/10 11:23:00;;;;;;;17.60;4.80;;;;;;;7.88;53.32;98706.65;106010;1274;107731;-71
2022/04/10 11:25:28;;;;;;;11.60;3.40;;;;;;;7.83;53.30;98703.25;106187;1274;96902;-70
2022/04/10 11:28:04;;;;;;;10.40;3.90;;;;;;;7.88;53.32;98702.08;106082;1274;96675;-71
2022/04/10 11:30:40;;;;;;;10.80;3.40;;;;;;;8.02;53.72;98704.11;106114;1274;111245;-70
2022/04/10 11:33:10;;;;;;;16.20;4.90;;;;;;;8.13;53.46;98704.30;106102;1274;98046;-69
2022/04/10 11:35:54;;;;;;;12.70;3.80;;;;;;;8.18;53.29;98705.98;106055;1274;107848;-70